Time;durP1;ratioP1;P1;durP2;ratioP2;P2;SDS_P1;SDS_P2;PMS_P1;PMS_P2;Temp;Humidity;BMP_temperature;BMP_pressure;BME280_temperature;BME280_humidity;BME280_pressure;Samples;Min_cycle;Max_cycle;Signal;HPM_P1;HPM_P2
2023/06/19 00:02:21;;;;;;;6.32;4.43;;;21.60;89.80;;;;;;4998985;28;20048;-82
2023/06/19 00:04:46;;;;;;;5.57;4.15;;;21.50;89.80;;;;;;5018019;28;20045;-81
2023/06/19 00:07:12;;;;;;;7.65;4.53;;;21.50;88.80;;;;;;5035072;28;20044;-81
2023/06/19 00:09:38;;;;;;;6.05;4.28;;;21.50;88.80;;;;;;5016450;28;20048;-81
2023/06/19 00:12:04;;;;;;;4.95;3.92;;;21.50;89.40;;;;;;5038402;28;20055;-81
2023/06/19 00:14:30;;;;;;;5.30;4.18;;;21.60;90.20;;;;;;5055772;28;20120;-82
2023/06/19 00:16:56;;;;;;;7.18;3.92;;;21.60;87.90;;;;;;5037265;28;20075;-81
2023/06/19 00:19:22;;;;;;;4.90;4.40;;;21.50;88.90;;;;;;5004178;28;20041;-81
2023/06/19 00:21:48;;;;;;;6.20;4.95;;;21.50;87.70;;;;;;5051294;28;20048;-81
2023/06/19 00:24:14;;;;;;;5.30;4.15;;;21.50;87.10;;;;;;5038670;28;20060;-81
2023/06/19 00:26:40;;;;;;;6.35;4.40;;;21.50;88.10;;;;;;5005427;28;20049;-81
2023/06/19 00:29:07;;;;;;;5.80;4.70;;;21.60;88.00;;;;;;5036150;28;20118;-81
2023/06/19 00:31:32;;;;;;;5.82;4.65;;;21.60;89.80;;;;;;5036735;28;20049;-81
2023/06/19 00:33:58;;;;;;;6.57;4.60;;;21.60;88.10;;;;;;5038674;28;20049;-81
2023/06/19 00:36:25;;;;;;;5.45;4.50;;;21.60;87.40;;;;;;5038423;28;20076;-81
2023/06/19 00:38:51;;;;;;;6.07;4.10;;;21.60;86.20;;;;;;5019137;28;20042;-81
2023/06/19 00:41:17;;;;;;;6.90;4.72;;;21.60;85.50;;;;;;5047079;28;20060;-81
2023/06/19 00:43:43;;;;;;;5.65;4.57;;;21.60;85.30;;;;;;5010112;28;20056;-81
2023/06/19 00:46:09;;;;;;;5.70;4.35;;;21.60;85.20;;;;;;5037404;28;20057;-81
2023/06/19 00:48:34;;;;;;;7.38;4.18;;;21.60;85.50;;;;;;5025009;28;20053;-81
2023/06/19 00:51:00;;;;;;;4.90;4.15;;;21.70;85.80;;;;;;5015414;28;20110;-81
2023/06/19 00:53:26;;;;;;;5.65;4.63;;;21.70;82.50;;;;;;5001990;28;20136;-81
2023/06/19 00:55:52;;;;;;;5.60;4.25;;;21.80;82.30;;;;;;5038068;28;20041;-80
2023/06/19 00:58:22;;;;;;;5.70;4.30;;;21.80;81.90;;;;;;5015218;28;20049;-82
2023/06/19 01:00:51;;;;;;;7.43;4.40;;;21.80;82.20;;;;;;5002484;28;20041;-81
2023/06/19 01:03:16;;;;;;;5.70;4.28;;;21.80;81.40;;;;;;5030253;28;20041;-81
2023/06/19 01:05:43;;;;;;;4.93;4.15;;;21.90;81.50;;;;;;5025154;28;20476;-81
2023/06/19 01:08:10;;;;;;;6.22;4.18;;;21.90;80.40;;;;;;5019856;28;20053;-81
2023/06/19 01:10:42;;;;;;;5.85;4.20;;;22.00;80.60;;;;;;5021651;28;20033;-81
2023/06/19 01:13:15;;;;;;;5.00;4.13;;;22.00;80.20;;;;;;5017090;28;20060;-81
2023/06/19 01:15:41;;;;;;;4.90;4.10;;;22.00;80.50;;;;;;5025605;28;20129;-81
2023/06/19 01:18:11;;;;;;;5.90;4.40;;;22.00;80.20;;;;;;5005196;28;20057;-81
2023/06/19 01:20:37;;;;;;;4.57;3.83;;;22.10;79.70;;;;;;5031501;28;20125;-82
2023/06/19 01:23:10;;;;;;;6.45;4.20;;;22.10;81.00;;;;;;5036833;28;20358;-81
2023/06/19 01:25:36;;;;;;;5.05;3.92;;;22.10;80.00;;;;;;5022255;28;20048;-82
2023/06/19 01:28:05;;;;;;;5.35;3.83;;;22.10;80.00;;;;;;5031197;28;20041;-82
2023/06/19 01:30:31;;;;;;;6.18;4.22;;;22.10;80.70;;;;;;5022546;28;20037;-82
2023/06/19 01:32:59;;;;;;;5.63;4.30;;;22.10;79.20;;;;;;5019255;28;20041;-81
2023/06/19 01:35:30;;;;;;;5.55;4.10;;;22.10;79.90;;;;;;5052921;28;20365;-81
2023/06/19 01:37:56;;;;;;;5.30;4.30;;;22.10;79.30;;;;;;5021538;28;20040;-82
2023/06/19 01:40:24;;;;;;;5.95;3.90;;;22.20;79.30;;;;;;5026464;28;20075;-82
2023/06/19 01:42:50;;;;;;;4.68;4.15;;;22.20;79.20;;;;;;5053263;28;20048;-81
2023/06/19 01:45:17;;;;;;;7.07;4.28;;;22.20;78.60;;;;;;5036323;28;20064;-81
2023/06/19 01:47:43;;;;;;;6.38;4.10;;;22.20;79.10;;;;;;5014842;28;20049;-80
2023/06/19 01:50:09;;;;;;;4.88;4.25;;;22.20;79.50;;;;;;5048186;28;20048;-81
2023/06/19 01:52:35;;;;;;;6.43;4.40;;;22.20;78.40;;;;;;5024813;28;20079;-81
2023/06/19 01:55:02;;;;;;;5.28;4.28;;;22.20;78.50;;;;;;5028577;28;20045;-82
2023/06/19 01:57:30;;;;;;;5.28;4.50;;;22.30;78.80;;;;;;5039526;28;20068;-81
2023/06/19 01:59:56;;;;;;;8.18;4.53;;;22.20;78.60;;;;;;5030973;28;20079;-81
2023/06/19 02:02:22;;;;;;;6.65;4.20;;;22.30;79.20;;;;;;5035380;28;20444;-81
2023/06/19 02:04:48;;;;;;;7.20;4.65;;;22.20;78.90;;;;;;5021792;28;20051;-81
2023/06/19 02:07:13;;;;;;;6.07;5.00;;;22.20;78.60;;;;;;5015919;28;20466;-82
2023/06/19 02:09:40;;;;;;;6.65;4.35;;;22.20;78.70;;;;;;5030972;28;20049;-81
2023/06/19 02:12:08;;;;;;;5.60;4.28;;;22.20;79.00;;;;;;5055770;28;20045;-81
2023/06/19 02:14:34;;;;;;;4.38;3.97;;;22.20;79.20;;;;;;5023563;28;20052;-81
2023/06/19 02:17:00;;;;;;;5.75;4.05;;;22.20;80.50;;;;;;5039107;28;20036;-81
2023/06/19 02:19:25;;;;;;;7.50;4.45;;;22.20;80.50;;;;;;5036163;28;20097;-82
2023/06/19 02:21:51;;;;;;;5.38;4.03;;;22.20;79.50;;;;;;5034309;28;20381;-82
2023/06/19 02:24:17;;;;;;;8.63;4.20;;;22.20;79.40;;;;;;5039856;28;20056;-82
2023/06/19 02:26:43;;;;;;;5.57;4.38;;;22.20;80.00;;;;;;5052421;28;20048;-81
2023/06/19 02:29:10;;;;;;;6.80;4.55;;;22.20;79.20;;;;;;5044096;28;20044;-82
2023/06/19 02:31:35;;;;;;;6.03;4.28;;;22.20;80.20;;;;;;5047423;28;20048;-81
2023/06/19 02:34:01;;;;;;;6.53;4.28;;;22.20;80.70;;;;;;5039455;28;20048;-81
2023/06/19 02:36:27;;;;;;;6.53;4.38;;;22.10;81.50;;;;;;5032952;28;20040;-81
2023/06/19 02:38:53;;;;;;;5.68;4.30;;;22.10;80.90;;;;;;5056254;28;20102;-81
2023/06/19 02:41:18;;;;;;;7.15;4.88;;;22.10;80.90;;;;;;5028518;28;20469;-82
2023/06/19 02:43:45;;;;;;;6.25;4.32;;;22.10;81.80;;;;;;5056537;28;20448;-82
2023/06/19 02:46:11;;;;;;;7.57;4.85;;;22.10;81.20;;;;;;5040711;28;20048;-81
2023/06/19 02:48:37;;;;;;;5.88;4.78;;;22.00;80.10;;;;;;5002791;28;20492;-81
2023/06/19 02:51:03;;;;;;;6.95;4.43;;;22.00;80.30;;;;;;5039815;28;20048;-81
2023/06/19 02:53:28;;;;;;;6.97;4.50;;;22.00;80.70;;;;;;5040808;28;20076;-81
2023/06/19 02:55:54;;;;;;;5.43;4.53;;;22.00;80.40;;;;;;5001894;28;20048;-80
2023/06/19 02:58:20;;;;;;;5.28;4.35;;;22.00;80.90;;;;;;5072018;28;20048;-81
2023/06/19 03:00:46;;;;;;;5.20;4.38;;;22.00;82.60;;;;;;5020356;28;20118;-81
2023/06/19 03:03:12;;;;;;;7.53;4.60;;;22.00;81.00;;;;;;5017445;28;20473;-81
2023/06/19 03:05:38;;;;;;;6.47;4.68;;;22.00;81.50;;;;;;5033821;28;20041;-80
2023/06/19 03:08:04;;;;;;;7.47;4.93;;;21.90;83.40;;;;;;5007269;28;20045;-81
2023/06/19 03:10:30;;;;;;;5.82;4.30;;;21.90;82.80;;;;;;5040032;28;20122;-80
2023/06/19 03:12:58;;;;;;;6.38;4.60;;;21.90;83.30;;;;;;5027250;28;21031;-82
2023/06/19 03:15:27;;;;;;;6.80;5.25;;;21.90;82.80;;;;;;5045031;28;20065;-81
2023/06/19 03:17:53;;;;;;;8.10;4.88;;;21.80;82.30;;;;;;5018842;28;20051;-81
2023/06/19 03:20:19;;;;;;;6.30;5.00;;;21.80;82.70;;;;;;5023419;28;20045;-81
2023/06/19 03:22:44;;;;;;;6.38;4.75;;;21.80;83.20;;;;;;5010587;28;20098;-81
2023/06/19 03:25:10;;;;;;;8.00;4.78;;;21.70;84.10;;;;;;5030344;28;20045;-82
2023/06/19 03:27:36;;;;;;;7.22;4.70;;;21.70;84.10;;;;;;5000123;28;20106;-82
2023/06/19 03:30:06;;;;;;;7.20;4.82;;;21.70;84.20;;;;;;5055133;28;20056;-82
2023/06/19 03:32:33;;;;;;;7.28;4.80;;;21.60;84.30;;;;;;5021863;28;20099;-82
2023/06/19 03:34:59;;;;;;;5.72;4.70;;;21.60;85.50;;;;;;5031530;28;20084;-82
2023/06/19 03:37:25;;;;;;;6.05;4.45;;;21.60;85.10;;;;;;5026509;28;20049;-81
2023/06/19 03:39:50;;;;;;;5.53;4.50;;;21.60;85.20;;;;;;5030503;28;20055;-81
2023/06/19 03:42:16;;;;;;;6.53;4.88;;;21.60;84.90;;;;;;5032791;28;20045;-80
2023/06/19 03:44:42;;;;;;;8.38;4.90;;;21.60;85.40;;;;;;5031468;28;20083;-82
2023/06/19 03:47:08;;;;;;;6.20;5.03;;;21.60;85.70;;;;;;5033288;28;20068;-80
2023/06/19 03:49:33;;;;;;;6.20;4.95;;;21.50;84.80;;;;;;5034566;28;20126;-81
2023/06/19 03:51:59;;;;;;;8.77;5.15;;;21.60;86.00;;;;;;5033008;28;20053;-81
2023/06/19 03:54:26;;;;;;;7.22;4.88;;;21.60;85.50;;;;;;5019108;28;20048;-82
2023/06/19 03:56:52;;;;;;;7.78;5.30;;;21.60;86.10;;;;;;5019269;28;20048;-81
2023/06/19 03:59:18;;;;;;;6.93;4.88;;;21.60;85.20;;;;;;5006356;28;20044;-81
2023/06/19 04:01:43;;;;;;;6.18;5.18;;;21.60;85.80;;;;;;5019613;28;20072;-80
2023/06/19 04:04:09;;;;;;;6.75;5.18;;;21.60;85.70;;;;;;5016122;28;20055;-82
2023/06/19 04:06:35;;;;;;;6.30;4.72;;;21.50;85.80;;;;;;5049206;28;20745;-80
2023/06/19 04:09:01;;;;;;;8.15;4.90;;;21.50;86.50;;;;;;5019496;28;20037;-80
2023/06/19 04:11:26;;;;;;;6.20;4.90;;;21.40;86.30;;;;;;5021861;28;20041;-81
2023/06/19 04:13:52;;;;;;;8.02;5.22;;;21.40;87.80;;;;;;5011498;28;20102;-80
2023/06/19 04:16:18;;;;;;;5.47;4.88;;;21.40;87.00;;;;;;5013078;28;20085;-81
2023/06/19 04:18:43;;;;;;;6.20;4.85;;;21.40;86.90;;;;;;5035196;28;20033;-80
2023/06/19 04:21:09;;;;;;;6.15;5.10;;;21.30;87.30;;;;;;5025952;28;20040;-80
2023/06/19 04:23:35;;;;;;;6.22;5.15;;;21.20;87.80;;;;;;5021892;28;20067;-80
2023/06/19 04:26:01;;;;;;;6.97;5.03;;;21.30;88.10;;;;;;5057592;28;20036;-80
2023/06/19 04:28:27;;;;;;;7.40;5.20;;;21.20;88.60;;;;;;5020720;28;20049;-81
2023/06/19 04:30:59;;;;;;;7.20;5.05;;;21.30;88.50;;;;;;5025113;28;20033;-81
2023/06/19 04:33:27;;;;;;;6.43;4.85;;;21.30;89.40;;;;;;5023657;28;20471;-81
2023/06/19 04:35:53;;;;;;;7.63;4.70;;;21.30;89.50;;;;;;5050132;28;20075;-82
2023/06/19 04:38:18;;;;;;;6.90;4.65;;;21.30;89.40;;;;;;5022641;28;20272;-80
2023/06/19 04:40:45;;;;;;;8.30;4.72;;;21.30;90.00;;;;;;5052569;28;20048;-81
2023/06/19 04:43:12;;;;;;;7.75;5.03;;;21.30;90.10;;;;;;5028911;28;20132;-80
2023/06/19 04:45:38;;;;;;;5.70;5.00;;;21.30;90.60;;;;;;5053908;28;20068;-81
2023/06/19 04:48:04;;;;;;;7.22;5.05;;;21.30;90.40;;;;;;5041997;28;20041;-80
2023/06/19 04:50:30;;;;;;;5.95;4.82;;;21.40;90.70;;;;;;5021347;28;20045;-80
2023/06/19 04:52:55;;;;;;;6.60;5.47;;;21.40;90.60;;;;;;5025045;28;20057;-80
2023/06/19 04:55:21;;;;;;;6.13;5.18;;;21.40;90.30;;;;;;5038649;28;20107;-81
2023/06/19 04:57:47;;;;;;;6.30;5.05;;;21.40;90.60;;;;;;5009061;28;20049;-81
2023/06/19 05:00:14;;;;;;;7.13;5.32;;;21.40;90.60;;;;;;5009371;28;20370;-80
2023/06/19 05:02:43;;;;;;;8.20;5.45;;;21.30;90.70;;;;;;4993690;28;20037;-82
2023/06/19 05:05:09;;;;;;;7.43;5.63;;;21.40;90.90;;;;;;5036048;28;20497;-81
2023/06/19 05:07:35;;;;;;;7.57;5.45;;;21.30;90.90;;;;;;5053499;28;20073;-81
2023/06/19 05:10:01;;;;;;;7.88;5.22;;;21.30;91.20;;;;;;5030805;28;20041;-81
2023/06/19 05:12:26;;;;;;;6.30;5.30;;;21.30;91.20;;;;;;5016219;28;20056;-80
2023/06/19 05:14:52;;;;;;;7.93;5.40;;;21.30;91.40;;;;;;5017735;28;20072;-81
2023/06/19 05:17:18;;;;;;;7.63;5.30;;;21.20;91.40;;;;;;4999237;28;20048;-81
2023/06/19 05:19:44;;;;;;;6.75;5.65;;;21.20;91.40;;;;;;4999626;28;20133;-79
2023/06/19 05:22:10;;;;;;;7.80;5.50;;;21.20;91.50;;;;;;5018193;28;20076;-79
2023/06/19 05:24:36;;;;;;;7.53;5.13;;;21.20;91.80;;;;;;5031761;28;20041;-79
2023/06/19 05:27:01;;;;;;;7.85;5.50;;;21.10;91.80;;;;;;5033388;28;20045;-78
2023/06/19 05:29:27;;;;;;;8.55;5.75;;;21.10;92.10;;;;;;5034489;28;20128;-78
2023/06/19 05:31:53;;;;;;;7.47;5.78;;;21.00;91.90;;;;;;5012844;28;20045;-78
2023/06/19 05:34:18;;;;;;;6.95;6.25;;;21.00;92.00;;;;;;5032296;28;20045;-78
2023/06/19 05:36:46;;;;;;;8.63;6.20;;;20.90;92.10;;;;;;5052487;28;20052;-77
2023/06/19 05:39:13;;;;;;;6.50;5.72;;;20.80;92.40;;;;;;5034124;28;20041;-78
2023/06/19 05:41:39;;;;;;;7.85;5.88;;;20.90;92.50;;;;;;5009954;28;20053;-78
2023/06/19 05:44:04;;;;;;;9.27;5.80;;;20.80;92.60;;;;;;5022704;28;20099;-79
2023/06/19 05:46:30;;;;;;;7.32;6.05;;;20.80;92.80;;;;;;5038409;28;20369;-78
2023/06/19 05:48:56;;;;;;;9.80;5.68;;;20.80;92.80;;;;;;5036603;28;20040;-78
2023/06/19 05:51:22;;;;;;;7.53;5.97;;;20.80;93.10;;;;;;5043220;28;20428;-78
2023/06/19 05:53:49;;;;;;;7.13;5.90;;;20.70;93.80;;;;;;5020713;28;20044;-77
2023/06/19 05:56:15;;;;;;;7.93;5.90;;;20.70;93.70;;;;;;5021925;28;20045;-77
2023/06/19 05:58:41;;;;;;;7.07;5.53;;;20.60;93.90;;;;;;5018476;28;20044;-77
2023/06/19 06:01:07;;;;;;;8.45;6.15;;;20.70;94.10;;;;;;5049033;28;20033;-77
2023/06/19 06:03:33;;;;;;;8.85;6.00;;;20.80;94.40;;;;;;5033745;28;20040;-78
2023/06/19 06:06:02;;;;;;;7.65;6.03;;;20.70;95.00;;;;;;5018369;28;20450;-77
2023/06/19 06:08:31;;;;;;;9.88;5.57;;;20.80;95.00;;;;;;5025959;28;20045;-77
2023/06/19 06:10:57;;;;;;;8.68;5.93;;;20.80;95.10;;;;;;5036299;28;20480;-77
2023/06/19 06:13:23;;;;;;;7.22;6.05;;;20.80;94.90;;;;;;5032021;28;20049;-77
2023/06/19 06:15:50;;;;;;;7.40;5.70;;;20.70;95.20;;;;;;5023746;28;20043;-77
2023/06/19 06:18:16;;;;;;;8.75;6.28;;;20.80;95.20;;;;;;5018941;28;20041;-77
2023/06/19 06:20:42;;;;;;;8.73;6.78;;;20.80;95.80;;;;;;5034961;28;20455;-77
2023/06/19 06:23:07;;;;;;;8.52;6.38;;;20.80;95.70;;;;;;5021670;28;20477;-78
2023/06/19 06:25:34;;;;;;;9.48;6.65;;;20.80;95.40;;;;;;5040422;28;20515;-78
2023/06/19 06:28:00;;;;;;;8.10;6.55;;;20.80;95.50;;;;;;5031749;28;20072;-78
2023/06/19 06:30:27;;;;;;;8.68;6.40;;;20.90;95.60;;;;;;5020615;28;20785;-78
2023/06/19 06:32:53;;;;;;;8.07;6.40;;;20.90;95.50;;;;;;4999560;28;20071;-78
2023/06/19 06:35:19;;;;;;;9.13;6.32;;;20.90;95.60;;;;;;5005429;28;20041;-78
2023/06/19 06:37:46;;;;;;;11.30;6.28;;;20.90;95.80;;;;;;5020675;28;20041;-78
2023/06/19 06:40:12;;;;;;;9.73;6.28;;;21.00;96.30;;;;;;5052977;28;20067;-78
2023/06/19 06:42:38;;;;;;;9.10;6.50;;;21.00;96.30;;;;;;5011145;28;20073;-78
2023/06/19 06:45:06;;;;;;;9.38;6.95;;;21.00;96.40;;;;;;5018781;28;20045;-78
2023/06/19 06:47:32;;;;;;;9.45;7.05;;;20.90;96.60;;;;;;5049620;28;20458;-78
2023/06/19 06:49:58;;;;;;;8.52;6.78;;;20.80;97.10;;;;;;5016375;28;20090;-78
2023/06/19 06:52:23;;;;;;;9.40;6.38;;;21.00;96.80;;;;;;5008410;28;20060;-79
2023/06/19 06:54:50;;;;;;;9.65;7.05;;;21.00;96.10;;;;;;5022791;28;20044;-77
2023/06/19 06:57:16;;;;;;;7.20;6.38;;;21.10;96.10;;;;;;5030939;28;20049;-77
2023/06/19 06:59:42;;;;;;;8.57;6.70;;;21.10;96.10;;;;;;5058431;28;20174;-78
2023/06/19 07:02:08;;;;;;;7.93;6.80;;;21.10;96.20;;;;;;5016543;28;20124;-77
2023/06/19 07:04:33;;;;;;;8.02;7.03;;;21.10;96.40;;;;;;5026892;28;20129;-78
2023/06/19 07:06:59;;;;;;;8.70;7.22;;;21.10;97.20;;;;;;5042021;28;20114;-78
2023/06/19 07:09:25;;;;;;;9.38;6.35;;;21.00;97.40;;;;;;5024546;28;20045;-78
2023/06/19 07:11:51;;;;;;;8.95;6.30;;;21.10;97.20;;;;;;5040835;28;20041;-77
2023/06/19 07:14:17;;;;;;;10.35;6.85;;;21.20;96.90;;;;;;5010055;28;20047;-77
2023/06/19 07:16:46;;;;;;;10.13;7.03;;;21.10;96.50;;;;;;5030625;28;20357;-78
2023/06/19 07:19:12;;;;;;;8.25;6.30;;;21.10;97.40;;;;;;5013838;28;20450;-78
2023/06/19 07:21:38;;;;;;;13.10;10.45;;;21.20;97.20;;;;;;5022393;28;20037;-78
2023/06/19 07:24:04;;;;;;;9.95;8.45;;;21.20;97.00;;;;;;5048082;28;20105;-78
2023/06/19 07:26:30;;;;;;;8.50;6.30;;;21.30;96.80;;;;;;5041381;28;20048;-77
2023/06/19 07:28:56;;;;;;;9.27;6.40;;;21.30;97.00;;;;;;5036172;28;20040;-77
2023/06/19 07:31:22;;;;;;;8.20;5.68;;;21.30;96.80;;;;;;5016887;28;20052;-78
2023/06/19 07:33:48;;;;;;;10.38;6.65;;;21.40;97.10;;;;;;5001516;28;20037;-78
2023/06/19 07:36:15;;;;;;;7.50;6.32;;;21.50;97.20;;;;;;5021546;28;20037;-78
2023/06/19 07:38:45;;;;;;;8.17;7.00;;;21.60;97.20;;;;;;5044613;28;20040;-79
2023/06/19 07:41:11;;;;;;;7.28;6.47;;;21.60;96.50;;;;;;5015383;28;20725;-78
2023/06/19 07:43:37;;;;;;;9.77;6.80;;;21.60;96.30;;;;;;5046014;28;20060;-78
2023/06/19 07:46:03;;;;;;;7.35;6.15;;;21.70;96.40;;;;;;5053870;28;20041;-78
2023/06/19 07:48:29;;;;;;;10.32;6.03;;;21.80;96.20;;;;;;5010437;28;20045;-78
2023/06/19 07:50:55;;;;;;;7.68;5.90;;;21.80;96.10;;;;;;5007723;28;20516;-77
2023/06/19 07:53:20;;;;;;;8.57;6.82;;;21.90;96.30;;;;;;5033046;28;20053;-77
2023/06/19 07:55:46;;;;;;;6.63;5.90;;;22.00;96.20;;;;;;5030537;28;20045;-77
2023/06/19 07:58:12;;;;;;;6.93;6.15;;;22.00;96.20;;;;;;5037194;28;20033;-78
2023/06/19 08:00:38;;;;;;;8.30;6.55;;;22.00;96.20;;;;;;5034142;28;20037;-78
2023/06/19 08:03:05;;;;;;;9.00;5.97;;;22.10;96.20;;;;;;5047396;28;20045;-78
2023/06/19 08:05:30;;;;;;;7.70;6.47;;;22.10;96.00;;;;;;5033032;28;20037;-78
2023/06/19 08:07:58;;;;;;;8.63;6.63;;;22.20;95.90;;;;;;5019833;28;20047;-78
2023/06/19 08:10:24;;;;;;;7.40;6.32;;;22.10;95.90;;;;;;5032149;28;20106;-78
2023/06/19 08:12:49;;;;;;;8.65;6.28;;;22.20;95.60;;;;;;5035692;28;20049;-78
2023/06/19 08:15:15;;;;;;;7.60;5.95;;;22.30;96.00;;;;;;5044469;28;20053;-78
2023/06/19 08:17:42;;;;;;;9.00;5.78;;;22.40;96.00;;;;;;5012610;28;20073;-79
2023/06/19 08:20:09;;;;;;;7.97;6.03;;;22.40;95.90;;;;;;5016065;28;20045;-79
2023/06/19 08:22:35;;;;;;;8.52;6.57;;;22.50;96.00;;;;;;5021084;28;20143;-79
2023/06/19 08:25:01;;;;;;;7.60;6.32;;;22.60;96.30;;;;;;5034955;28;20568;-80
2023/06/19 08:27:26;;;;;;;12.45;7.70;;;22.70;96.30;;;;;;5038233;28;20552;-80
2023/06/19 08:29:52;;;;;;;9.45;6.95;;;22.70;96.00;;;;;;5054792;28;20677;-79
2023/06/19 08:32:18;;;;;;;7.55;6.43;;;23.00;96.20;;;;;;5015746;28;20045;-80
2023/06/19 08:34:44;;;;;;;9.55;6.70;;;23.00;95.90;;;;;;5021570;28;20036;-80
2023/06/19 08:37:10;;;;;;;8.52;6.45;;;23.20;95.70;;;;;;5010806;28;20485;-80
2023/06/19 08:39:37;;;;;;;8.90;6.47;;;23.40;94.90;;;;;;5053846;28;20041;-80
2023/06/19 08:42:07;;;;;;;8.15;6.53;;;23.40;94.30;;;;;;5038372;28;20122;-81
2023/06/19 08:44:34;;;;;;;10.52;6.20;;;23.40;93.60;;;;;;5038150;28;20049;-80
2023/06/19 08:47:01;;;;;;;8.60;7.70;;;23.40;94.30;;;;;;5022170;28;20551;-80
2023/06/19 08:49:30;;;;;;;11.82;7.53;;;23.40;94.50;;;;;;5026398;28;20058;-80
2023/06/19 08:51:55;;;;;;;10.05;7.53;;;23.50;94.80;;;;;;5021758;28;20065;-80
2023/06/19 08:54:21;;;;;;;10.43;7.47;;;23.60;94.60;;;;;;5016480;28;20060;-80
2023/06/19 08:56:47;;;;;;;8.98;7.38;;;23.60;94.70;;;;;;5053852;28;20458;-80
2023/06/19 08:59:14;;;;;;;10.98;7.50;;;23.60;93.90;;;;;;5005154;28;20061;-80
2023/06/19 09:01:40;;;;;;;10.20;7.38;;;23.60;93.50;;;;;;5023660;28;20074;-80
2023/06/19 09:04:12;;;;;;;10.50;7.25;;;23.80;92.60;;;;;;5056592;28;20049;-80
2023/06/19 09:06:51;;;;;;;8.80;6.78;;;23.90;92.80;;;;;;5034861;28;20041;-78
2023/06/19 09:09:17;;;;;;;8.88;7.28;;;24.00;92.80;;;;;;5042409;28;20473;-80
2023/06/19 09:11:43;;;;;;;8.77;6.85;;;24.20;92.70;;;;;;5047764;28;20053;-80
2023/06/19 09:14:10;;;;;;;10.27;7.70;;;24.20;92.90;;;;;;5055357;28;20037;-80
2023/06/19 09:16:40;;;;;;;10.05;7.32;;;24.30;92.90;;;;;;5036400;28;20397;-79
2023/06/19 09:19:06;;;;;;;8.40;7.45;;;24.40;92.20;;;;;;5042702;28;20043;-79
2023/06/19 09:21:31;;;;;;;11.63;7.00;;;24.40;92.40;;;;;;5041779;28;20467;-80
2023/06/19 09:24:07;;;;;;;9.82;7.45;;;24.60;92.20;;;;;;5022014;28;20041;-80
2023/06/19 09:26:34;;;;;;;10.68;7.18;;;24.70;91.80;;;;;;5008275;28;20127;-80
2023/06/19 09:29:20;;;;;;;10.27;7.22;;;24.70;92.00;;;;;;5031901;28;20299;-80
2023/06/19 09:31:46;;;;;;;9.52;6.50;;;24.70;92.30;;;;;;5051555;28;20044;-79
2023/06/19 09:34:12;;;;;;;9.32;6.57;;;24.70;92.20;;;;;;5033267;28;20098;-80
2023/06/19 09:36:37;;;;;;;6.80;6.10;;;24.80;92.30;;;;;;5023717;28;20068;-80
2023/06/19 09:39:03;;;;;;;8.63;6.43;;;24.90;91.50;;;;;;5048722;28;20072;-79
2023/06/19 09:41:30;;;;;;;7.22;6.30;;;24.80;91.10;;;;;;5026235;28;20063;-79
2023/06/19 09:43:59;;;;;;;7.68;6.53;;;24.80;90.90;;;;;;5040002;28;20055;-79
2023/06/19 09:46:34;;;;;;;7.13;6.13;;;24.90;90.70;;;;;;5041031;28;20049;-79
2023/06/19 09:49:01;;;;;;;7.65;6.45;;;24.90;90.90;;;;;;5038648;28;20458;-80
2023/06/19 09:51:36;;;;;;;9.60;6.57;;;24.80;90.10;;;;;;5016131;28;20555;-79
2023/06/19 09:54:03;;;;;;;8.65;6.50;;;24.90;90.50;;;;;;5037704;28;20128;-80
2023/06/19 09:56:29;;;;;;;9.43;6.65;;;25.10;90.00;;;;;;5035124;28;20041;-80
2023/06/19 09:58:56;;;;;;;10.18;6.75;;;25.20;90.60;;;;;;5006296;28;20052;-80
2023/06/19 10:01:23;;;;;;;9.07;6.55;;;25.20;89.00;;;;;;5023103;28;20033;-80
2023/06/19 10:03:48;;;;;;;9.63;7.13;;;25.20;88.80;;;;;;5040355;28;20040;-79
2023/06/19 10:06:16;;;;;;;8.63;6.35;;;25.30;87.10;;;;;;5054394;28;20041;-79
2023/06/19 10:08:43;;;;;;;9.68;6.25;;;25.30;89.70;;;;;;5052010;28;20045;-79
2023/06/19 10:11:13;;;;;;;7.55;6.53;;;25.40;84.70;;;;;;5021270;28;20044;-79
2023/06/19 10:13:40;;;;;;;9.63;6.68;;;25.60;85.40;;;;;;5051677;28;20110;-78
2023/06/19 10:16:07;;;;;;;8.27;6.40;;;25.70;84.00;;;;;;5047964;28;20373;-77
2023/06/19 10:18:33;;;;;;;8.10;6.63;;;25.70;83.70;;;;;;5016082;28;20103;-77
2023/06/19 10:20:59;;;;;;;7.93;6.38;;;25.70;81.90;;;;;;5038292;28;20118;-77
2023/06/19 10:23:28;;;;;;;10.00;6.78;;;25.70;82.90;;;;;;5026609;28;20045;-77
2023/06/19 10:25:53;;;;;;;6.82;5.78;;;25.80;83.30;;;;;;5037830;28;20346;-77
2023/06/19 10:28:25;;;;;;;12.00;7.00;;;25.90;84.40;;;;;;5023623;28;20064;-78
2023/06/19 10:30:58;;;;;;;8.63;6.72;;;26.10;83.20;;;;;;5044400;28;20045;-77
2023/06/19 10:33:24;;;;;;;7.28;6.25;;;26.40;81.10;;;;;;5024573;28;20060;-77
2023/06/19 10:35:50;;;;;;;9.25;6.25;;;26.40;79.70;;;;;;5034355;28;20056;-77
2023/06/19 10:38:16;;;;;;;7.82;6.18;;;26.50;77.10;;;;;;5032026;28;20041;-77
2023/06/19 10:40:44;;;;;;;9.23;6.57;;;26.50;77.10;;;;;;5019101;28;20056;-77
2023/06/19 10:43:10;;;;;;;9.57;6.55;;;26.50;76.40;;;;;;5036703;28;20045;-77
2023/06/19 10:45:36;;;;;;;10.30;7.10;;;26.40;76.10;;;;;;5049778;28;20393;-77
2023/06/19 10:48:02;;;;;;;9.13;6.43;;;26.30;76.20;;;;;;5015461;28;20048;-77
2023/06/19 10:50:28;;;;;;;10.05;6.90;;;26.30;77.70;;;;;;5031447;28;20480;-78
2023/06/19 10:52:54;;;;;;;8.95;6.70;;;26.40;78.60;;;;;;5040997;28;20057;-77
2023/06/19 10:55:21;;;;;;;10.77;6.68;;;26.40;78.80;;;;;;5018794;28;20048;-77
2023/06/19 10:57:47;;;;;;;7.20;6.22;;;26.50;79.50;;;;;;5046051;28;20042;-78
2023/06/19 11:00:23;;;;;;;8.02;6.10;;;26.30;79.90;;;;;;5017725;28;20041;-77
2023/06/19 11:02:49;;;;;;;8.07;6.40;;;26.30;81.20;;;;;;4994869;28;20064;-80
2023/06/19 11:05:14;;;;;;;7.00;6.13;;;26.30;81.80;;;;;;5023502;28;20132;-81
2023/06/19 11:07:40;;;;;;;9.43;6.93;;;26.40;82.00;;;;;;5033090;28;20082;-80
2023/06/19 11:10:06;;;;;;;9.90;5.50;;;26.30;81.20;;;;;;5023474;28;20131;-80
2023/06/19 11:12:34;;;;;;;10.73;5.70;;;26.30;81.60;;;;;;5025543;28;20107;-80
2023/06/19 11:15:02;;;;;;;8.00;6.10;;;26.30;81.70;;;;;;5039659;28;20052;-80
2023/06/19 11:17:28;;;;;;;6.22;5.63;;;26.30;81.90;;;;;;5020511;28;20096;-80
2023/06/19 11:19:53;;;;;;;7.25;5.78;;;26.30;81.80;;;;;;5038998;28;20087;-80
2023/06/19 11:22:20;;;;;;;8.15;6.20;;;26.50;79.90;;;;;;5026167;28;20365;-80
2023/06/19 11:24:46;;;;;;;8.20;5.95;;;26.50;79.80;;;;;;5027555;28;20095;-80
2023/06/19 11:27:27;;;;;;;7.50;5.82;;;26.50;80.50;;;;;;5020839;28;20041;-80
2023/06/19 11:29:58;;;;;;;6.93;6.00;;;26.50;79.90;;;;;;5014411;28;20060;-80
2023/06/19 11:32:24;;;;;;;7.95;5.78;;;26.60;80.00;;;;;;5026774;28;20082;-80
2023/06/19 11:34:51;;;;;;;6.65;5.95;;;26.70;79.70;;;;;;5022252;28;20045;-80
2023/06/19 11:37:23;;;;;;;7.53;6.65;;;26.60;80.00;;;;;;5020265;28;20473;-80
2023/06/19 11:39:50;;;;;;;6.82;6.13;;;26.70;79.20;;;;;;5020644;28;20044;-80
2023/06/19 11:42:19;;;;;;;7.78;6.10;;;26.70;79.00;;;;;;5018121;28;20075;-80
2023/06/19 11:44:54;;;;;;;7.03;6.32;;;26.80;78.40;;;;;;5014084;28;20056;-80
2023/06/19 11:47:20;;;;;;;8.30;5.68;;;26.90;79.80;;;;;;5031192;28;20040;-80
2023/06/19 11:49:50;;;;;;;8.48;6.20;;;26.90;79.90;;;;;;5029705;28;20114;-80
2023/06/19 11:52:16;;;;;;;8.35;6.10;;;26.90;80.80;;;;;;5046859;28;20044;-80
2023/06/19 11:54:42;;;;;;;8.13;5.60;;;27.00;80.70;;;;;;5012686;28;20037;-80
2023/06/19 11:57:11;;;;;;;6.57;5.88;;;26.90;80.00;;;;;;5007874;28;20671;-80
2023/06/19 11:59:41;;;;;;;6.93;5.32;;;26.90;79.60;;;;;;5023717;28;20052;-80
2023/06/19 12:02:07;;;;;;;9.55;5.82;;;27.00;81.40;;;;;;5016797;28;20048;-81
2023/06/19 12:04:33;;;;;;;6.72;5.80;;;26.90;82.70;;;;;;5031804;28;20045;-82
2023/06/19 12:06:59;;;;;;;6.38;5.45;;;27.00;84.10;;;;;;5032616;28;20608;-80
2023/06/19 12:09:25;;;;;;;6.82;5.90;;;27.20;84.60;;;;;;5049175;28;20122;-80
2023/06/19 12:11:51;;;;;;;7.03;5.93;;;27.30;84.30;;;;;;5017899;28;20461;-80
2023/06/19 12:14:18;;;;;;;8.55;6.15;;;27.30;84.90;;;;;;5032143;28;20163;-80
2023/06/19 12:16:45;;;;;;;7.93;5.60;;;27.30;84.80;;;;;;5026244;28;20095;-79
2023/06/19 12:19:11;;;;;;;6.75;6.07;;;27.30;85.50;;;;;;5037823;28;20052;-80
2023/06/19 12:21:37;;;;;;;6.70;5.50;;;27.30;85.50;;;;;;5048611;28;20041;-80
2023/06/19 12:24:04;;;;;;;6.47;5.68;;;27.30;85.90;;;;;;5032525;28;20201;-80
2023/06/19 12:26:31;;;;;;;8.07;5.50;;;27.50;85.70;;;;;;5036178;28;20052;-80
2023/06/19 12:28:56;;;;;;;7.25;5.38;;;27.50;85.40;;;;;;5033691;28;20041;-80
2023/06/19 12:31:22;;;;;;;5.85;5.20;;;27.50;85.30;;;;;;5025204;28;20469;-80
2023/06/19 12:33:48;;;;;;;6.05;5.45;;;27.50;85.30;;;;;;5034319;28;20071;-80
2023/06/19 12:36:17;;;;;;;6.72;6.03;;;27.70;85.00;;;;;;5006491;28;20608;-80
2023/06/19 12:38:43;;;;;;;6.55;5.18;;;27.70;83.60;;;;;;5028675;28;20048;-80
2023/06/19 12:41:08;;;;;;;7.40;5.15;;;27.80;83.50;;;;;;5019417;28;20041;-80
2023/06/19 12:43:34;;;;;;;6.07;5.20;;;28.00;83.00;;;;;;5018318;28;20049;-80